Time;durP1;ratioP1;P1;durP2;ratioP2;P2;SDS_P1;SDS_P2;PMS_P1;PMS_P2;Temp;Humidity;BMP_temperature;BMP_pressure;BME280_temperature;BME280_humidity;BME280_pressure;Samples;Min_cycle;Max_cycle;Signal;HPM_P1;HPM_P2
2022/05/12 00:02:21;;;;;;;;;;;;;;;26.29;30.75;101105.22;5075952;28;896;-42
2022/05/12 00:04:46;;;;;;;;;;;;;;;26.33;30.76;101105.75;5075721;28;753;-41
2022/05/12 00:07:12;;;;;;;;;;;;;;;26.31;30.96;101099.66;5075579;28;1002;-41
2022/05/12 00:09:37;;;;;;;;;;;;;;;26.28;30.95;101099.00;5076322;28;797;-42
2022/05/12 00:12:03;;;;;;;;;;;;;;;26.32;31.02;101098.66;5075792;28;750;-41
2022/05/12 00:14:28;;;;;;;;;;;;;;;26.24;31.22;101099.50;5075291;28;900;-40
2022/05/12 00:16:56;;;;;;;;;;;;;;;26.26;31.18;101098.31;5075455;28;1902;-42
2022/05/12 00:19:22;;;;;;;;;;;;;;;26.24;31.10;101088.72;5075553;28;1208;-40
2022/05/12 00:21:47;;;;;;;;;;;;;;;26.17;30.97;101097.44;5075731;28;897;-40
2022/05/12 00:24:16;;;;;;;;;;;;;;;26.25;31.46;101093.94;5075574;28;853;-39
2022/05/12 00:26:42;;;;;;;;;;;;;;;26.26;31.38;101094.75;5077941;28;1072;-40
2022/05/12 00:29:07;;;;;;;;;;;;;;;26.25;31.19;101095.78;5079497;28;757;-40
2022/05/12 00:31:33;;;;;;;;;;;;;;;26.23;31.20;101098.66;5079341;28;995;-42
2022/05/12 00:33:59;;;;;;;;;;;;;;;26.25;31.05;101091.25;5079256;28;960;-43
2022/05/12 00:36:24;;;;;;;;;;;;;;;26.26;31.28;101101.00;5079217;28;1917;-42
2022/05/12 00:38:49;;;;;;;;;;;;;;;26.26;30.85;101097.44;5079085;28;1443;-39
2022/05/12 00:41:15;;;;;;;;;;;;;;;26.23;31.13;101097.78;5078446;28;961;-40
2022/05/12 00:43:40;;;;;;;;;;;;;;;26.23;31.20;101095.09;5061074;28;859;-41
2022/05/12 00:46:07;;;;;;;;;;;;;;;26.26;30.74;101092.06;5078630;28;1030;-39
2022/05/12 00:48:32;;;;;;;;;;;;;;;26.27;31.13;101101.84;5079015;28;910;-39
2022/05/12 00:50:58;;;;;;;;;;;;;;;26.20;31.20;101098.13;5079218;28;844;-41
2022/05/12 00:53:23;;;;;;;;;;;;;;;26.20;31.30;101098.13;5078562;28;1432;-42
2022/05/12 00:55:48;;;;;;;;;;;;;;;26.17;31.35;101096.63;5060770;28;826;-41
2022/05/12 00:58:15;;;;;;;;;;;;;;;26.17;31.35;101093.94;5060785;28;1890;-39
2022/05/12 01:00:40;;;;;;;;;;;;;;;26.16;31.14;101098.47;5078390;28;1018;-40
2022/05/12 01:03:13;;;;;;;;;;;;;;;26.17;31.00;101094.75;5078309;28;829;-39
2022/05/12 01:05:38;;;;;;;;;;;;;;;26.18;31.21;101092.91;5078738;28;903;-40
2022/05/12 01:08:04;;;;;;;;;;;;;;;26.18;30.99;101095.59;5078871;28;850;-39
2022/05/12 01:10:29;;;;;;;;;;;;;;;26.14;30.99;101102.38;5060018;28;884;-40
2022/05/12 01:12:54;;;;;;;;;;;;;;;26.17;30.93;101104.72;5078834;28;1017;-41
2022/05/12 01:15:21;;;;;;;;;;;;;;;26.14;31.09;101113.16;5078895;28;995;-42
2022/05/12 01:17:46;;;;;;;;;;;;;;;26.17;30.94;101097.44;5077794;28;1946;-41
2022/05/12 01:20:12;;;;;;;;;;;;;;;26.17;30.83;101102.84;5079009;28;849;-42
2022/05/12 01:22:42;;;;;;;;;;;;;;;26.19;30.88;101101.84;5078885;28;747;-39
2022/05/12 01:25:11;;;;;;;;;;;;;;;26.14;30.97;101096.97;5078344;28;1115;-39
2022/05/12 01:27:37;;;;;;;;;;;;;;;26.13;30.89;101096.13;5078567;28;825;-41
2022/05/12 01:30:02;;;;;;;;;;;;;;;26.11;31.15;101106.22;5077896;28;1070;-42
2022/05/12 01:32:28;;;;;;;;;;;;;;;26.12;31.09;101107.06;5077937;28;934;-39
2022/05/12 01:34:53;;;;;;;;;;;;;;;26.14;31.06;101110.44;5078082;28;751;-41
2022/05/12 01:37:18;;;;;;;;;;;;;;;26.16;30.98;101105.72;5077496;28;1956;-41
2022/05/12 01:39:44;;;;;;;;;;;;;;;26.14;31.04;101113.16;5078266;28;738;-41
2022/05/12 01:42:09;;;;;;;;;;;;;;;26.11;31.27;101108.91;5078273;28;904;-42
2022/05/12 01:44:35;;;;;;;;;;;;;;;26.15;31.31;101101.34;5077896;28;900;-42
2022/05/12 01:47:00;;;;;;;;;;;;;;;26.16;31.47;101103.88;5077315;28;1045;-40
2022/05/12 01:49:25;;;;;;;;;;;;;;;26.13;31.29;101100.66;5078078;28;841;-41
2022/05/12 01:51:52;;;;;;;;;;;;;;;26.08;31.20;101105.72;5077611;28;833;-42
2022/05/12 01:54:17;;;;;;;;;;;;;;;26.11;31.20;101100.81;5078027;28;792;-43
2022/05/12 01:56:42;;;;;;;;;;;;;;;26.12;31.07;101110.63;5077811;28;1943;-41
2022/05/12 01:59:08;;;;;;;;;;;;;;;26.13;30.87;101101.50;5077380;28;1707;-39
2022/05/12 02:01:33;;;;;;;;;;;;;;;26.12;31.18;101096.28;5077516;28;955;-42
2022/05/12 02:03:58;;;;;;;;;;;;;;;26.09;31.12;101096.63;5077507;28;886;-41
2022/05/12 02:06:24;;;;;;;;;;;;;;;26.41;31.22;101097.66;5077515;28;821;-40
2022/05/12 02:08:49;;;;;;;;;;;;;;;26.39;30.90;101097.81;5077349;28;836;-40
2022/05/12 02:11:14;;;;;;;;;;;;;;;26.38;30.70;101098.84;5077153;28;895;-39
2022/05/12 02:13:40;;;;;;;;;;;;;;;26.33;30.86;101098.50;5077606;28;1052;-38
2022/05/12 02:16:05;;;;;;;;;;;;;;;26.31;30.82;101092.41;5077238;28;1952;-41
2022/05/12 02:18:30;;;;;;;;;;;;;;;26.24;30.60;101100.31;5076823;28;904;-41
2022/05/12 02:20:57;;;;;;;;;;;;;;;26.27;30.79;101109.94;5077361;28;777;-39
2022/05/12 02:23:23;;;;;;;;;;;;;;;26.23;30.98;101106.75;5077122;28;892;-42
2022/05/12 02:25:48;;;;;;;;;;;;;;;26.22;31.12;101104.22;5076839;28;1543;-42
2022/05/12 02:28:14;;;;;;;;;;;;;;;26.20;31.08;101100.84;5077085;28;807;-40
2022/05/12 02:30:39;;;;;;;;;;;;;;;26.22;30.94;101104.22;5077144;28;990;-41
2022/05/12 02:33:04;;;;;;;;;;;;;;;26.23;30.90;101103.19;5076617;28;769;-39
2022/05/12 02:35:30;;;;;;;;;;;;;;;26.22;30.91;101106.91;5077067;28;885;-41
2022/05/12 02:37:56;;;;;;;;;;;;;;;26.62;30.79;101102.53;5076576;28;1901;-40
2022/05/12 02:40:21;;;;;;;;;;;;;;;27.10;30.20;101109.00;5076654;28;742;-39
2022/05/12 02:42:47;;;;;;;;;;;;;;;27.34;29.48;101104.53;5077340;28;818;-41
2022/05/12 02:45:12;;;;;;;;;;;;;;;27.56;29.22;101118.28;5076862;28;1021;-43
2022/05/12 02:47:37;;;;;;;;;;;;;;;27.73;29.25;101113.63;5075772;28;884;-41
2022/05/12 02:50:03;;;;;;;;;;;;;;;27.93;28.57;101115.88;5076610;28;933;-43
2022/05/12 02:52:28;;;;;;;;;;;;;;;27.49;28.91;101116.25;5076858;28;798;-41
2022/05/12 02:54:54;;;;;;;;;;;;;;;27.11;29.39;101126.91;5076705;28;769;-39
2022/05/12 02:57:19;;;;;;;;;;;;;;;27.57;29.24;101134.31;5076559;28;1961;-41
2022/05/12 02:59:44;;;;;;;;;;;;;;;27.98;28.55;101130.53;5076320;28;865;-42
2022/05/12 03:02:10;;;;;;;;;;;;;;;27.57;28.64;101136.16;5075860;28;894;-40
2022/05/12 03:04:35;;;;;;;;;;;;;;;27.22;29.34;101131.94;5076397;28;802;-40
2022/05/12 03:07:01;;;;;;;;;;;;;;;27.11;29.30;101132.31;5076630;28;818;-40
2022/05/12 03:09:26;;;;;;;;;;;;;;;27.04;29.33;101126.78;5075844;28;768;-40
2022/05/12 03:11:51;;;;;;;;;;;;;;;26.92;29.79;101128.97;5076516;28;880;-39
2022/05/12 03:14:16;;;;;;;;;;;;;;;26.87;29.53;101126.78;5076047;28;868;-40
2022/05/12 03:16:42;;;;;;;;;;;;;;;26.84;29.83;101128.97;5075949;28;1905;-41
2022/05/12 03:19:07;;;;;;;;;;;;;;;26.88;30.02;101133.84;5076313;28;825;-40
2022/05/12 03:21:33;;;;;;;;;;;;;;;26.82;29.71;101125.59;5076115;28;814;-40
2022/05/12 03:23:58;;;;;;;;;;;;;;;26.81;29.88;101132.03;5075934;28;839;-41
2022/05/12 03:26:23;;;;;;;;;;;;;;;26.78;29.79;101128.66;5075873;28;1175;-41
2022/05/12 03:28:48;;;;;;;;;;;;;;;26.94;30.22;101126.09;5075969;28;1417;-41
2022/05/12 03:31:14;;;;;;;;;;;;;;;26.85;30.19;101127.94;5075759;28;1046;-41
2022/05/12 03:33:39;;;;;;;;;;;;;;;26.85;30.03;101131.50;5076625;28;794;-42
2022/05/12 03:36:05;;;;;;;;;;;;;;;26.86;30.30;101135.06;5076340;28;913;-42
2022/05/12 03:38:30;;;;;;;;;;;;;;;26.78;30.00;101139.44;5076037;28;1914;-40
2022/05/12 03:40:55;;;;;;;;;;;;;;;26.68;30.15;101133.38;5076489;28;738;-42
2022/05/12 03:46:05;;;;;;;;;;;;;;;26.34;28.69;101137.94;5075433;28;1014;-42
2022/05/12 03:48:30;;;;;;;;;;;;;;;26.29;28.98;101143.00;5075919;28;786;-39
2022/05/12 03:50:55;;;;;;;;;;;;;;;26.10;28.73;101138.75;5075821;28;917;-40
2022/05/12 03:53:21;;;;;;;;;;;;;;;25.47;29.49;101134.53;5049776;28;1529;-43
2022/05/12 03:55:48;;;;;;;;;;;;;;;24.98;30.13;101127.88;5075633;28;1533;-44
2022/05/12 03:58:13;;;;;;;;;;;;;;;24.65;30.54;101139.25;5070682;28;1898;-41
2022/05/12 04:00:38;;;;;;;;;;;;;;;24.39;30.91;101141.91;5078886;28;1228;-40
2022/05/12 04:03:04;;;;;;;;;;;;;;;24.18;31.15;101141.22;5079341;28;1366;-41
2022/05/12 04:05:31;;;;;;;;;;;;;;;24.65;30.56;101150.03;5071486;28;745;-40
2022/05/12 04:07:56;;;;;;;;;;;;;;;24.97;30.27;101158.50;5080045;28;821;-39
2022/05/12 04:10:21;;;;;;;;;;;;;;;24.85;30.10;101160.59;5078952;28;1524;-41
2022/05/12 04:12:47;;;;;;;;;;;;;;;24.85;30.43;101157.88;5076203;28;1529;-40
2022/05/12 04:15:15;;;;;;;;;;;;;;;26.29;28.40;101156.47;5079006;28;1561;-41
2022/05/12 04:17:41;;;;;;;;;;;;;;;26.73;27.22;101157.16;5078048;28;1960;-40
2022/05/12 04:20:07;;;;;;;;;;;;;;;25.71;28.70;101159.88;5079103;28;1520;-40
2022/05/12 04:22:33;;;;;;;;;;;;;;;25.42;29.43;101164.63;5079311;28;1339;-39
2022/05/12 04:24:58;;;;;;;;;;;;;;;25.37;29.35;101168.81;5079192;28;1106;-41
2022/05/12 04:27:24;;;;;;;;;;;;;;;25.29;29.66;101173.16;5079302;28;774;-41
2022/05/12 04:29:49;;;;;;;;;;;;;;;25.24;29.68;101170.09;5079158;28;880;-40
2022/05/12 04:32:14;;;;;;;;;;;;;;;25.19;29.88;101178.66;5079531;28;745;-41
2022/05/12 04:37:24;;;;;;;;;;;;;;;25.27;29.85;101179.72;5079158;28;1902;-43
2022/05/12 04:39:50;;;;;;;;;;;;;;;25.25;29.60;101179.88;5079313;28;833;-40
2022/05/12 04:42:15;;;;;;;;;;;;;;;25.24;29.86;101175.47;5078937;28;841;-40
2022/05/12 04:44:40;;;;;;;;;;;;;;;25.28;30.07;101176.84;5079144;28;1175;-40
2022/05/12 04:47:06;;;;;;;;;;;;;;;25.38;30.04;101176.72;5073764;28;1014;-40
2022/05/12 04:49:31;;;;;;;;;;;;;;;25.68;29.40;101177.22;5059112;28;889;-39
2022/05/12 04:51:57;;;;;;;;;;;;;;;25.82;29.14;101179.47;5058721;28;829;-39
2022/05/12 04:54:22;;;;;;;;;;;;;;;25.86;29.12;101170.88;5078879;28;985;-39
2022/05/12 04:56:47;;;;;;;;;;;;;;;25.95;29.42;101176.28;5060585;28;1894;-38
2022/05/12 04:59:13;;;;;;;;;;;;;;;26.06;29.43;101177.84;5078818;28;789;-40
2022/05/12 05:01:38;;;;;;;;;;;;;;;26.22;28.93;101177.88;5078922;28;987;-37
2022/05/12 05:04:03;;;;;;;;;;;;;;;26.21;28.90;101186.13;5078897;28;971;-41
2022/05/12 05:06:32;;;;;;;;;;;;;;;26.14;29.25;101185.94;5060227;28;813;-40
2022/05/12 05:08:57;;;;;;;;;;;;;;;26.14;29.25;101186.78;5078875;28;790;-40
2022/05/12 05:11:23;;;;;;;;;;;;;;;26.09;29.46;101185.59;5078296;28;782;-39
2022/05/12 05:13:48;;;;;;;;;;;;;;;26.01;29.63;101187.25;5077920;28;1505;-40
2022/05/12 05:16:14;;;;;;;;;;;;;;;26.11;29.51;101192.50;5078401;28;1902;-39
2022/05/12 05:18:39;;;;;;;;;;;;;;;26.10;29.59;101193.53;5078488;28;967;-39
2022/05/12 05:21:05;;;;;;;;;;;;;;;26.06;29.91;101192.16;5078173;28;889;-40
2022/05/12 05:23:30;;;;;;;;;;;;;;;26.07;29.88;101195.69;5078425;28;947;-41
2022/05/12 05:25:55;;;;;;;;;;;;;;;26.10;30.01;101198.06;5078363;28;1059;-39
2022/05/12 05:28:21;;;;;;;;;;;;;;;26.10;30.01;101190.81;5060408;28;956;-39
2022/05/12 05:30:46;;;;;;;;;;;;;;;25.93;29.52;101195.31;5077736;28;888;-40
2022/05/12 05:33:11;;;;;;;;;;;;;;;25.93;28.80;101198.00;5066343;28;1286;-40
2022/05/12 05:35:37;;;;;;;;;;;;;;;26.10;29.62;101195.38;5058381;28;754;-39
2022/05/12 05:38:02;;;;;;;;;;;;;;;26.08;30.53;101200.06;5057671;28;1905;-41
2022/05/12 05:40:28;;;;;;;;;;;;;;;25.99;30.79;101202.75;5057501;28;853;-38
2022/05/12 05:42:54;;;;;;;;;;;;;;;26.36;30.26;101192.56;5070319;28;1524;-37
2022/05/12 05:45:19;;;;;;;;;;;;;;;26.62;29.79;101188.03;5077520;28;896;-40
2022/05/12 05:47:46;;;;;;;;;;;;;;;26.74;29.84;101194.75;5078079;28;790;-40
2022/05/12 05:50:12;;;;;;;;;;;;;;;26.79;29.54;101194.28;5077585;28;1092;-38
2022/05/12 05:55:21;;;;;;;;;;;;;;;26.81;29.28;101204.91;5059100;28;771;-40
2022/05/12 05:57:47;;;;;;;;;;;;;;;26.69;30.04;101205.25;5061465;28;1898;-38
2022/05/12 06:00:12;;;;;;;;;;;;;;;26.90;29.40;101209.25;5077539;28;1006;-40
2022/05/12 06:02:38;;;;;;;;;;;;;;;27.00;28.78;101203.69;5074560;28;1247;-41
2022/05/12 06:05:04;;;;;;;;;;;;;;;27.01;29.19;101205.34;5077145;28;1242;-41
2022/05/12 06:07:29;;;;;;;;;;;;;;;27.12;29.23;101206.91;5077615;28;1226;-41
2022/05/12 06:09:54;;;;;;;;;;;;;;;27.02;29.10;101199.84;5077441;28;948;-40
2022/05/12 06:12:20;;;;;;;;;;;;;;;27.07;29.16;101204.72;5077307;28;892;-42
2022/05/12 06:14:45;;;;;;;;;;;;;;;27.06;28.82;101202.19;5077239;28;1030;-40
2022/05/12 06:17:10;;;;;;;;;;;;;;;27.06;28.78;101205.72;5075461;28;1898;-42
2022/05/12 06:19:36;;;;;;;;;;;;;;;27.11;28.98;101202.53;5073328;28;1528;-42
2022/05/12 06:22:01;;;;;;;;;;;;;;;27.12;28.78;101199.66;5076749;28;806;-40
2022/05/12 06:24:27;;;;;;;;;;;;;;;27.14;28.29;101202.19;5072988;28;1195;-39
2022/05/12 06:26:52;;;;;;;;;;;;;;;26.93;29.02;101199.97;5077190;28;1032;-41
2022/05/12 06:29:19;;;;;;;;;;;;;;;26.92;29.84;101192.91;5075717;28;1326;-40
2022/05/12 06:31:44;;;;;;;;;;;;;;;26.98;29.60;101201.16;5075783;28;1192;-40
2022/05/12 06:34:09;;;;;;;;;;;;;;;27.06;29.68;101197.63;5077040;28;841;-40
2022/05/12 06:36:35;;;;;;;;;;;;;;;26.95;30.29;101192.53;5076214;28;1910;-43
2022/05/12 06:39:00;;;;;;;;;;;;;;;26.76;30.97;101198.13;5076530;28;814;-40
2022/05/12 06:41:26;;;;;;;;;;;;;;;26.74;31.39;101199.34;5076508;28;805;-40
2022/05/12 06:43:52;;;;;;;;;;;;;;;26.78;31.27;101195.25;5075471;28;1159;-41
2022/05/12 06:46:17;;;;;;;;;;;;;;;26.26;32.96;101183.75;5067884;28;1290;-41
2022/05/12 06:48:43;;;;;;;;;;;;;;;26.07;34.26;101196.53;5075360;28;1477;-39
2022/05/12 06:51:09;;;;;;;;;;;;;;;26.13;34.39;101192.31;5075749;28;1521;-38
2022/05/12 06:53:34;;;;;;;;;;;;;;;26.33;33.52;101192.91;5076451;28;853;-39
2022/05/12 06:55:59;;;;;;;;;;;;;;;26.09;34.46;101189.13;5074817;28;1508;-36
2022/05/12 06:58:25;;;;;;;;;;;;;;;25.97;34.90;101190.44;5065495;28;1898;-32
2022/05/12 07:00:50;;;;;;;;;;;;;;;25.74;35.78;101189.19;5071370;28;1223;-39
2022/05/12 07:03:16;;;;;;;;;;;;;;;25.59;35.96;101182.72;5065821;28;907;-38
2022/05/12 07:05:42;;;;;;;;;;;;;;;26.22;34.70;101187.81;5075561;28;1215;-39
2022/05/12 07:08:07;;;;;;;;;;;;;;;25.83;35.11;101190.06;5067819;28;1202;-37
2022/05/12 07:10:33;;;;;;;;;;;;;;;25.85;34.70;101187.22;5071778;28;849;-40
2022/05/12 07:12:58;;;;;;;;;;;;;;;26.32;33.58;101177.72;5076371;28;794;-38
2022/05/12 07:15:27;;;;;;;;;;;;;;;26.09;34.31;101178.31;5076246;28;948;-40
2022/05/12 07:17:54;;;;;;;;;;;;;;;26.32;34.32;101177.72;5075388;28;1894;-39
2022/05/12 07:28:32;;;;;;;;;;;;;;;26.18;35.00;101179.19;5058314;28;1260;-39
2022/05/12 07:31:03;;;;;;;;;;;;;;;25.57;36.04;101182.88;5075126;28;1360;-36
2022/05/12 07:33:32;;;;;;;;;;;;;;;25.85;36.31;101184.50;5075013;28;833;-37
2022/05/12 07:35:58;;;;;;;;;;;;;;;25.72;37.30;101187.69;5074229;28;1211;-39
2022/05/12 07:38:23;;;;;;;;;;;;;;;25.49;36.93;101190.94;5063357;28;1953;-39
2022/05/12 07:40:49;;;;;;;;;;;;;;;25.90;36.77;101185.72;5067234;28;1328;-39
2022/05/12 07:43:14;;;;;;;;;;;;;;;25.58;37.33;101184.56;5075556;28;1366;-36
2022/05/12 07:45:40;;;;;;;;;;;;;;;25.28;37.91;101176.84;5056331;28;1414;-36
2022/05/12 07:48:05;;;;;;;;;;;;;;;25.26;37.90;101169.91;5062536;28;1524;-39
2022/05/12 07:50:31;;;;;;;;;;;;;;;25.24;38.36;101178.16;5057295;28;1250;-37
2022/05/12 07:52:56;;;;;;;;;;;;;;;24.79;39.34;101172.81;5066958;28;1167;-37
2022/05/12 07:55:21;;;;;;;;;;;;;;;24.53;39.30;101164.69;5074826;28;974;-38
2022/05/12 07:57:46;;;;;;;;;;;;;;;25.28;37.43;101160.69;5074726;28;1895;-35
2022/05/12 08:00:12;;;;;;;;;;;;;;;24.49;37.12;101161.47;5074413;28;1152;-43
2022/05/12 08:02:38;;;;;;;;;;;;;;;24.86;38.22;101164.13;5075669;28;809;-43
2022/05/12 08:05:04;;;;;;;;;;;;;;;25.14;37.34;101164.81;5075555;28;853;-43
2022/05/12 08:07:30;;;;;;;;;;;;;;;25.29;36.91;101164.25;5075689;28;818;-43
2022/05/12 08:09:57;;;;;;;;;;;;;;;26.57;34.63;101169.66;5075390;28;897;-43
2022/05/12 08:12:22;;;;;;;;;;;;;;;27.22;32.60;101174.31;5075876;28;785;-43
2022/05/12 08:14:48;;;;;;;;;;;;;;;27.33;32.75;101173.06;5074772;28;982;-43
2022/05/12 08:17:13;;;;;;;;;;;;;;;27.35;32.53;101165.63;5072608;28;1893;-43
2022/05/12 08:19:38;;;;;;;;;;;;;;;27.43;32.33;101173.72;5074661;28;852;-44
2022/05/12 08:22:04;;;;;;;;;;;;;;;27.52;31.72;101166.44;5074737;28;1315;-43
2022/05/12 08:24:29;;;;;;;;;;;;;;;27.39;31.58;101173.22;5056452;28;1450;-43
2022/05/12 08:26:54;;;;;;;;;;;;;;;27.11;32.29;101162.03;5068796;28;1537;-43
2022/05/12 08:29:20;;;;;;;;;;;;;;;27.29;31.76;101160.94;5070388;28;1385;-42
2022/05/12 08:31:45;;;;;;;;;;;;;;;27.34;31.79;101164.78;5062598;28;1037;-43
2022/05/12 08:34:10;;;;;;;;;;;;;;;27.43;31.06;101162.06;5054586;28;797;-43
2022/05/12 08:36:36;;;;;;;;;;;;;;;27.49;30.77;101164.09;5054423;28;1965;-42
2022/05/12 08:39:01;;;;;;;;;;;;;;;27.37;30.17;101152.81;5054828;28;802;-41
2022/05/12 08:41:30;;;;;;;;;;;;;;;27.08;30.52;101165.03;5069284;28;1449;-43
2022/05/12 08:43:56;;;;;;;;;;;;;;;27.42;29.62;101171.19;5073037;28;1541;-42
2022/05/12 08:46:23;;;;;;;;;;;;;;;27.71;28.83;101164.34;5074502;28;1256;-42
2022/05/12 08:48:48;;;;;;;;;;;;;;;27.69;28.23;101159.13;5057130;28;1414;-43
2022/05/12 08:51:17;;;;;;;;;;;;;;;27.66;28.55;101162.13;5060470;28;1406;-42
2022/05/12 08:53:52;;;;;;;;;;;;;;;27.90;27.87;101160.34;5075632;28;1148;-42
2022/05/12 08:56:17;;;;;;;;;;;;;;;27.76;29.27;101156.53;5074733;28;1183;-43
2022/05/12 08:58:43;;;;;;;;;;;;;;;27.92;28.96;101155.59;5056038;28;1898;-43
2022/05/12 09:01:20;;;;;;;;;;;;;;;27.84;28.93;101159.19;5079003;28;946;-42
2022/05/12 09:03:58;;;;;;;;;;;;;;;27.88;29.02;101156.97;5077365;28;1187;-42
2022/05/12 09:06:23;;;;;;;;;;;;;;;27.90;29.00;101149.53;5077455;28;1568;-42
2022/05/12 09:09:00;;;;;;;;;;;;;;;28.01;28.79;101144.75;5078751;28;775;-43
2022/05/12 09:11:28;;;;;;;;;;;;;;;28.01;28.93;101137.44;5058761;28;1248;-42
2022/05/12 09:13:54;;;;;;;;;;;;;;;28.08;28.99;101140.28;5074931;28;1200;-43
2022/05/12 09:16:21;;;;;;;;;;;;;;;28.04;29.33;101150.63;5077342;28;1286;-43
2022/05/12 09:18:46;;;;;;;;;;;;;;;28.01;29.26;101137.44;5079104;28;814;-42
2022/05/12 09:21:16;;;;;;;;;;;;;;;28.06;29.31;101140.44;5076696;28;1258;-43
2022/05/12 09:23:41;;;;;;;;;;;;;;;27.99;29.45;101140.34;5077838;28;1227;-41
2022/05/12 09:26:25;;;;;;;;;;;;;;;28.05;29.36;101146.03;5078214;28;1020;-43
2022/05/12 09:28:50;;;;;;;;;;;;;;;28.08;28.94;101140.28;5077542;28;1195;-44
2022/05/12 09:31:17;;;;;;;;;;;;;;;28.04;28.81;101129.00;5076080;28;1294;-42
2022/05/12 09:33:43;;;;;;;;;;;;;;;28.26;26.86;101137.25;5075907;28;1187;-43
2022/05/12 09:36:15;;;;;;;;;;;;;;;28.24;27.86;101142.84;5063332;28;802;-43
2022/05/12 09:38:41;;;;;;;;;;;;;;;27.34;28.51;101132.38;5057697;28;1973;-41
2022/05/12 09:41:17;;;;;;;;;;;;;;;27.97;27.62;101131.56;5056909;28;794;-42
2022/05/12 09:43:43;;;;;;;;;;;;;;;28.07;27.77;101127.78;5076800;28;1015;-42
2022/05/12 09:46:17;;;;;;;;;;;;;;;27.97;28.00;101134.28;5059836;28;891;-41
2022/05/12 09:48:43;;;;;;;;;;;;;;;28.14;28.02;101133.31;5077054;28;853;-41
2022/05/12 09:51:24;;;;;;;;;;;;;;;28.20;28.11;101136.13;5077881;28;816;-43
2022/05/12 09:53:50;;;;;;;;;;;;;;;28.23;27.72;101130.34;5072303;28;1147;-41
2022/05/12 09:56:25;;;;;;;;;;;;;;;28.33;27.76;101126.59;5078045;28;853;-41
2022/05/12 09:58:56;;;;;;;;;;;;;;;28.31;27.61;101134.03;5059132;28;834;-41
2022/05/12 10:01:22;;;;;;;;;;;;;;;28.31;27.38;101131.31;5059722;28;892;-42
2022/05/12 10:09:19;;;;;;;;;;;;;;;28.34;27.31;101123.69;5076977;28;1064;-40
2022/05/12 10:12:00;;;;;;;;;;;;;;;28.35;26.90;101113.72;5077157;28;1266;-41
2022/05/12 10:14:44;;;;;;;;;;;;;;;28.17;27.01;101101.34;5066939;28;1247;-42
2022/05/12 10:17:33;;;;;;;;;;;;;;;28.27;26.79;101109.19;5073829;28;1902;-40
2022/05/12 10:20:00;;;;;;;;;;;;;;;28.38;27.01;101105.25;5076670;28;1416;-41
2022/05/12 10:22:33;;;;;;;;;;;;;;;28.42;26.90;101109.28;5075919;28;1473;-41
2022/05/12 10:25:03;;;;;;;;;;;;;;;28.42;26.91;101106.56;5057745;28;1540;-41
2022/05/12 10:27:35;;;;;;;;;;;;;;;28.49;26.57;101109.38;5057591;28;1272;-42
2022/05/12 10:30:21;;;;;;;;;;;;;;;28.47;26.64;101106.88;5072602;28;1190;-43
2022/05/12 10:33:05;;;;;;;;;;;;;;;28.53;26.64;101099.03;5076326;28;825;-40
2022/05/12 10:35:35;;;;;;;;;;;;;;;28.53;26.61;101107.97;5075839;28;781;-42
2022/05/12 10:38:19;;;;;;;;;;;;;;;28.58;26.46;101110.13;5058617;28;1902;-42
2022/05/12 10:40:52;;;;;;;;;;;;;;;28.62;26.41;101106.03;5074494;28;1053;-42
2022/05/12 10:43:36;;;;;;;;;;;;;;;28.63;26.08;101096.06;5074665;28;888;-41
2022/05/12 10:46:13;;;;;;;;;;;;;;;28.68;26.16;101094.47;5066673;28;963;-43
2022/05/12 10:48:49;;;;;;;;;;;;;;;28.63;26.07;101096.88;5074681;28;1299;-42
2022/05/12 10:51:27;;;;;;;;;;;;;;;28.56;26.40;101104.91;5074599;28;1287;-43
2022/05/12 10:53:52;;;;;;;;;;;;;;;28.58;25.82;101086.63;5058351;28;830;-44
2022/05/12 10:56:24;;;;;;;;;;;;;;;28.59;25.49;101087.47;5075597;28;1303;-42
2022/05/12 10:58:49;;;;;;;;;;;;;;;28.64;25.58;101095.03;5058100;28;814;-42
2022/05/12 11:01:15;;;;;;;;;;;;;;;28.63;25.55;101093.34;5074347;28;1246;-41
2022/05/12 11:03:41;;;;;;;;;;;;;;;28.67;25.25;101086.53;5076002;28;889;-42
2022/05/12 11:06:07;;;;;;;;;;;;;;;28.71;25.39;101083.25;5070154;28;935;-43
2022/05/12 11:08:34;;;;;;;;;;;;;;;28.69;25.05;101088.03;5038188;28;814;-43
2022/05/12 11:11:22;;;;;;;;;;;;;;;28.76;25.32;101092.72;5038324;28;833;-43
2022/05/12 11:14:02;;;;;;;;;;;;;;;28.71;25.40;101079.72;5055536;28;1236;-42
2022/05/12 11:16:34;;;;;;;;;;;;;;;28.62;25.64;101083.53;5073526;28;1905;-42
2022/05/12 11:19:12;;;;;;;;;;;;;;;28.90;24.67;101081.03;5039956;28;805;-39
2022/05/12 11:21:42;;;;;;;;;;;;;;;29.02;24.22;101078.72;5042439;28;782;-42
2022/05/12 11:24:18;;;;;;;;;;;;;;;29.11;23.79;101081.34;5042667;28;1506;-41
2022/05/12 11:27:02;;;;;;;;;;;;;;;29.29;23.73;101080.94;5037843;28;1459;-43
2022/05/12 11:29:51;;;;;;;;;;;;;;;29.28;23.96;101080.06;5056193;28;1008;-41
2022/05/12 11:32:39;;;;;;;;;;;;;;;29.20;24.00;101070.19;5048397;28;864;-42
2022/05/12 11:35:06;;;;;;;;;;;;;;;29.43;23.03;101069.22;5027805;28;1182;-40
2022/05/12 11:37:36;;;;;;;;;;;;;;;29.53;22.93;101065.38;5055450;28;1979;-41
2022/05/12 11:40:06;;;;;;;;;;;;;;;29.48;23.07;101068.63;5055115;28;1126;-42
2022/05/12 11:44:24;;;;;;;;;;;;;;;29.27;23.74;101066.72;5055962;28;837;-40
2022/05/12 11:45:38;;;;;;;;;;;;;;;29.21;24.18;101060.22;5046848;28;1182;-40
2022/05/12 11:48:24;;;;;;;;;;;;;;;29.06;24.08;101069.19;5043849;28;1254;-40
2022/05/12 11:50:59;;;;;;;;;;;;;;;29.21;23.84;101050.19;5046839;28;1243;-40
2022/05/12 11:53:27;;;;;;;;;;;;;;;29.27;23.85;101047.75;5049786;28;1052;-38
2022/05/12 11:55:54;;;;;;;;;;;;;;;28.20;23.84;101044.16;5054491;28;903;-38
2022/05/12 11:58:28;;;;;;;;;;;;;;;29.04;23.11;101046.88;5055358;28;1902;-38
2022/05/12 12:00:54;;;;;;;;;;;;;;;29.09;23.62;101049.03;5052070;28;1234;-38
2022/05/12 12:03:19;;;;;;;;;;;;;;;29.03;23.60;101038.94;5055630;28;1493;-39
2022/05/12 12:05:50;;;;;;;;;;;;;;;29.09;23.18;101043.59;5052781;28;1520;-39
2022/05/12 12:08:31;;;;;;;;;;;;;;;29.01;23.30;101036.41;5048449;28;1184;-40
2022/05/12 12:11:14;;;;;;;;;;;;;;;29.20;23.29;101040.41;5056067;28;798;-38
2022/05/12 12:13:40;;;;;;;;;;;;;;;29.29;23.10;101033.00;5055442;28;989;-36
2022/05/12 12:16:07;;;;;;;;;;;;;;;29.39;22.80;101023.72;5055353;28;879;-38
2022/05/12 12:18:32;;;;;;;;;;;;;;;28.45;22.70;101018.75;5053388;28;1898;-42
2022/05/12 12:20:59;;;;;;;;;;;;;;;27.78;22.97;101013.13;5056843;28;896;-41
2022/05/12 12:23:25;;;;;;;;;;;;;;;28.69;22.39;101019.53;5055804;28;1598;-39
2022/05/12 12:26:00;;;;;;;;;;;;;;;29.10;22.66;101020.91;5058617;28;1219;-40
2022/05/12 12:28:48;;;;;;;;;;;;;;;29.25;22.40;101015.44;5059507;28;858;-41
2022/05/12 12:31:37;;;;;;;;;;;;;;;29.34;22.59;101021.59;5056205;28;1508;-41
2022/05/12 12:34:12;;;;;;;;;;;;;;;29.18;23.20;101019.94;5046406;28;1343;-41
2022/05/12 12:36:56;;;;;;;;;;;;;;;29.16;23.45;101009.28;5049459;28;1910;-40
2022/05/12 12:39:34;;;;;;;;;;;;;;;29.24;23.23;101002.94;5048912;28;1177;-40
2022/05/12 12:42:23;;;;;;;;;;;;;;;29.21;23.30;101001.44;5047827;28;1269;-40
2022/05/12 12:44:49;;;;;;;;;;;;;;;29.33;23.37;100996.34;5044680;28;1304;-39
2022/05/12 12:47:27;;;;;;;;;;;;;;;29.28;23.60;100995.28;5048215;28;1262;-41
2022/05/12 12:49:52;;;;;;;;;;;;;;;29.29;23.54;100995.06;5049610;28;1215;-39
2022/05/12 12:52:18;;;;;;;;;;;;;;;29.30;23.33;100998.59;5053777;28;1421;-41
2022/05/12 12:57:28;;;;;;;;;;;;;;;27.71;25.03;100986.78;5055251;28;1894;-42
2022/05/12 12:59:57;;;;;;;;;;;;;;;28.72;24.12;100983.94;5050575;28;1064;-42
2022/05/12 13:02:27;;;;;;;;;;;;;;;28.96;23.78;100977.38;5058799;28;1429;-41
2022/05/12 13:04:54;;;;;;;;;;;;;;;29.05;23.52;100970.00;5059213;28;820;-40
2022/05/12 13:07:24;;;;;;;;;;;;;;;29.16;23.37;100970.53;5058457;28;1520;-42
2022/05/12 13:09:51;;;;;;;;;;;;;;;29.16;23.23;100965.13;5058351;28;1179;-42
2022/05/12 13:12:17;;;;;;;;;;;;;;;29.26;23.01;100968.34;5055864;28;1287;-42
2022/05/12 13:14:43;;;;;;;;;;;;;;;29.38;23.37;100970.56;5057322;28;1473;-41
2022/05/12 13:17:09;;;;;;;;;;;;;;;29.26;23.36;100962.09;5059114;28;1977;-41
2022/05/12 13:19:39;;;;;;;;;;;;;;;29.31;23.47;100967.78;5059094;28;797;-41